GFSAC EGKA-EGKA
Flight info
| Callsign | GFSAC |
|---|---|
| Flight time | 0h 46m |
| Altitude | 2500 |
| Route | VFR |
| Aircraft | PA28/L-SDGRY/S |
Departure
| Time | 2026-04-27 18:58 |
|---|---|
| Airport | Brighton City Airport (EGKA) |
Arrival
| Time | 2026-04-27 19:44 |
|---|---|
| Airport | Brighton City Airport (EGKA) |
| Time | Latitude | Longitude | Altitude | Speed | Heading |
|---|---|---|---|---|---|
| 2026-04-27 18:47 | 50.83491 | -0.28842 | 12 ft | 0 kts | 69° |
| 2026-04-27 18:55 | 50.83493 | -0.28836 | 12 ft | 3 kts | 67° |
| 2026-04-27 18:55 | 50.83535 | -0.28815 | 12 ft | 8 kts | 16° |
| 2026-04-27 18:55 | 50.83619 | -0.28848 | 12 ft | 15 kts | 319° |
| 2026-04-27 18:55 | 50.83693 | -0.29010 | 12 ft | 23 kts | 306° |
| 2026-04-27 18:56 | 50.83783 | -0.29215 | 12 ft | 19 kts | 304° |
| 2026-04-27 18:56 | 50.83853 | -0.29328 | 12 ft | 14 kts | 343° |
| 2026-04-27 18:56 | 50.83954 | -0.29328 | 12 ft | 6 kts | 1° |
| 2026-04-27 18:56 | 50.83989 | -0.29418 | 12 ft | 10 kts | 292° |
| 2026-04-27 18:57 | 50.83973 | -0.29469 | 12 ft | 9 kts | 201° |
| 2026-04-27 18:57 | 50.83750 | -0.29607 | 12 ft | 64 kts | 200° |
| 2026-04-27 18:57 | 50.83276 | -0.29907 | 229 ft | 77 kts | 203° |
| 2026-04-27 18:57 | 50.82773 | -0.30289 | 491 ft | 84 kts | 216° |
| 2026-04-27 18:58 | 50.82551 | -0.31132 | 746 ft | 90 kts | 271° |
| 2026-04-27 18:58 | 50.82659 | -0.31758 | 986 ft | 87 kts | 295° |
| 2026-04-27 18:58 | 50.83344 | -0.32206 | 1385 ft | 85 kts | 0° |
| 2026-04-27 18:58 | 50.83905 | -0.32239 | 1749 ft | 76 kts | 358° |
| 2026-04-27 18:59 | 50.84415 | -0.32276 | 2062 ft | 70 kts | 357° |
| 2026-04-27 18:59 | 50.84884 | -0.32300 | 2339 ft | 70 kts | 358° |
| 2026-04-27 18:59 | 50.85394 | -0.32326 | 2584 ft | 76 kts | 358° |
| 2026-04-27 18:59 | 50.85959 | -0.32359 | 2746 ft | 93 kts | 358° |
| 2026-04-27 19:00 | 50.86701 | -0.32358 | 2757 ft | 119 kts | 1° |
| 2026-04-27 19:00 | 50.87580 | -0.32335 | 2755 ft | 131 kts | 1° |
| 2026-04-27 19:00 | 50.88502 | -0.32309 | 2748 ft | 133 kts | 360° |
| 2026-04-27 19:00 | 50.89425 | -0.32308 | 2744 ft | 133 kts | 8° |
| 2026-04-27 19:01 | 50.90205 | -0.31539 | 2746 ft | 135 kts | 40° |
| 2026-04-27 19:01 | 50.90847 | -0.30443 | 2747 ft | 136 kts | 45° |
| 2026-04-27 19:01 | 50.91483 | -0.29321 | 2748 ft | 137 kts | 45° |
| 2026-04-27 19:01 | 50.92121 | -0.28191 | 2748 ft | 138 kts | 46° |
| 2026-04-27 19:02 | 50.92763 | -0.27058 | 2747 ft | 137 kts | 45° |
| 2026-04-27 19:02 | 50.93303 | -0.25823 | 2733 ft | 141 kts | 72° |
| 2026-04-27 19:02 | 50.93037 | -0.24331 | 2655 ft | 154 kts | 128° |
| 2026-04-27 19:02 | 50.92492 | -0.22901 | 2465 ft | 155 kts | 95° |
| 2026-04-27 19:03 | 50.92667 | -0.21240 | 2295 ft | 154 kts | 71° |
| 2026-04-27 19:03 | 50.92956 | -0.19625 | 2246 ft | 149 kts | 71° |
| 2026-04-27 19:03 | 50.93230 | -0.18065 | 2244 ft | 145 kts | 72° |
| 2026-04-27 19:03 | 50.93405 | -0.17046 | 2244 ft | 144 kts | 71° |
| 2026-04-27 19:04 | 50.93752 | -0.15010 | 2241 ft | 142 kts | 71° |
| 2026-04-27 19:04 | 50.94011 | -0.13493 | 2238 ft | 142 kts | 72° |
| 2026-04-27 19:04 | 50.94275 | -0.11947 | 2122 ft | 148 kts | 72° |
| 2026-04-27 19:04 | 50.94550 | -0.10357 | 2023 ft | 149 kts | 72° |
| 2026-04-27 19:05 | 50.94824 | -0.08793 | 2018 ft | 145 kts | 72° |
| 2026-04-27 19:05 | 50.95088 | -0.07264 | 2018 ft | 143 kts | 72° |
| 2026-04-27 19:05 | 50.95349 | -0.05741 | 2016 ft | 143 kts | 72° |
| 2026-04-27 19:05 | 50.95682 | -0.04286 | 1999 ft | 138 kts | 50° |
| 2026-04-27 19:06 | 50.96511 | -0.03786 | 2004 ft | 132 kts | 351° |
| 2026-04-27 19:06 | 50.97382 | -0.04251 | 2002 ft | 131 kts | 339° |
| 2026-04-27 19:06 | 50.98158 | -0.04981 | 2006 ft | 129 kts | 328° |
| 2026-04-27 19:06 | 50.98907 | -0.05769 | 2003 ft | 129 kts | 328° |
| 2026-04-27 19:07 | 50.99656 | -0.06559 | 2006 ft | 129 kts | 328° |
| 2026-04-27 19:07 | 51.00406 | -0.07349 | 2004 ft | 129 kts | 328° |
| 2026-04-27 19:07 | 51.00898 | -0.08503 | 2005 ft | 131 kts | 288° |
| 2026-04-27 19:07 | 51.01025 | -0.09944 | 2005 ft | 133 kts | 269° |
| 2026-04-27 19:08 | 51.00937 | -0.11390 | 2003 ft | 130 kts | 285° |
| 2026-04-27 19:08 | 51.01524 | -0.12324 | 2007 ft | 123 kts | 343° |
| 2026-04-27 19:08 | 51.02351 | -0.12701 | 2010 ft | 124 kts | 338° |
| 2026-04-27 19:08 | 51.03031 | -0.13556 | 2013 ft | 126 kts | 318° |
| 2026-04-27 19:09 | 51.03584 | -0.14656 | 2017 ft | 129 kts | 307° |
| 2026-04-27 19:09 | 51.04096 | -0.15821 | 2018 ft | 128 kts | 307° |
| 2026-04-27 19:09 | 51.04608 | -0.16979 | 2018 ft | 128 kts | 307° |
| 2026-04-27 19:09 | 51.05009 | -0.18237 | 2018 ft | 129 kts | 295° |
| 2026-04-27 19:10 | 51.05369 | -0.19535 | 2011 ft | 127 kts | 305° |
| 2026-04-27 19:10 | 51.06112 | -0.20129 | 2010 ft | 123 kts | 353° |
| 2026-04-27 19:10 | 51.06950 | -0.20372 | 2014 ft | 122 kts | 349° |
| 2026-04-27 19:10 | 51.07505 | -0.20533 | 2018 ft | 123 kts | 351° |
| 2026-04-27 19:11 | 51.08621 | -0.20850 | 2015 ft | 121 kts | 351° |
| 2026-04-27 19:11 | 51.09450 | -0.21043 | 2010 ft | 119 kts | 358° |
| 2026-04-27 19:11 | 51.10274 | -0.21105 | 2009 ft | 117 kts | 3° |
| 2026-04-27 19:11 | 51.10936 | -0.20475 | 2008 ft | 118 kts | 58° |
| 2026-04-27 19:12 | 51.11086 | -0.19188 | 2013 ft | 120 kts | 83° |
| 2026-04-27 19:12 | 51.10741 | -0.18019 | 2063 ft | 122 kts | 142° |
| 2026-04-27 19:12 | 51.09933 | -0.17791 | 2119 ft | 124 kts | 196° |
| 2026-04-27 19:12 | 51.09362 | -0.18765 | 2104 ft | 121 kts | 258° |
| 2026-04-27 19:13 | 51.09518 | -0.19937 | 2192 ft | 111 kts | 311° |
| 2026-04-27 19:13 | 51.10169 | -0.20587 | 2043 ft | 122 kts | 343° |
| 2026-04-27 19:13 | 51.11032 | -0.20817 | 1821 ft | 131 kts | 351° |
| 2026-04-27 19:13 | 51.11904 | -0.21075 | 1824 ft | 123 kts | 352° |
| 2026-04-27 19:14 | 51.12738 | -0.21271 | 1815 ft | 120 kts | 354° |
| 2026-04-27 19:14 | 51.13582 | -0.21390 | 1710 ft | 124 kts | 355° |
| 2026-04-27 19:14 | 51.14443 | -0.21371 | 1650 ft | 124 kts | 1° |
| 2026-04-27 19:14 | 51.15301 | -0.21469 | 1566 ft | 124 kts | 352° |
| 2026-04-27 19:15 | 51.16160 | -0.21640 | 1481 ft | 125 kts | 353° |
| 2026-04-27 19:15 | 51.16995 | -0.21798 | 1552 ft | 114 kts | 353° |
| 2026-04-27 19:15 | 51.17749 | -0.21942 | 1673 ft | 106 kts | 353° |
| 2026-04-27 19:15 | 51.18473 | -0.22091 | 1793 ft | 106 kts | 351° |
| 2026-04-27 19:16 | 51.19205 | -0.22392 | 1922 ft | 111 kts | 344° |
| 2026-04-27 19:16 | 51.19445 | -0.22510 | 1965 ft | 111 kts | 345° |
| 2026-04-27 19:16 | 51.20738 | -0.23071 | 2024 ft | 122 kts | 347° |
| 2026-04-27 19:16 | 51.21566 | -0.23410 | 2026 ft | 124 kts | 346° |
| 2026-04-27 19:17 | 51.22404 | -0.23759 | 2027 ft | 126 kts | 345° |
| 2026-04-27 19:17 | 51.23247 | -0.24173 | 2029 ft | 127 kts | 343° |
| 2026-04-27 19:17 | 51.23960 | -0.24945 | 2013 ft | 130 kts | 303° |
| 2026-04-27 19:17 | 51.24083 | -0.26365 | 2012 ft | 134 kts | 265° |
| 2026-04-27 19:18 | 51.23911 | -0.27820 | 2013 ft | 133 kts | 263° |
| 2026-04-27 19:18 | 51.23897 | -0.29253 | 2005 ft | 128 kts | 297° |
| 2026-04-27 19:18 | 51.24595 | -0.29938 | 2005 ft | 122 kts | 4° |
| 2026-04-27 19:18 | 51.25243 | -0.29146 | 2011 ft | 126 kts | 60° |
| 2026-04-27 19:19 | 51.25590 | -0.27860 | 2020 ft | 126 kts | 63° |
| 2026-04-27 19:19 | 51.25829 | -0.26986 | 2021 ft | 127 kts | 63° |
| 2026-04-27 19:19 | 51.26064 | -0.25629 | 2017 ft | 128 kts | 77° |
| 2026-04-27 19:19 | 51.26177 | -0.24230 | 2020 ft | 127 kts | 81° |
| 2026-04-27 19:20 | 51.26260 | -0.22835 | 2016 ft | 126 kts | 81° |
| 2026-04-27 19:20 | 51.26339 | -0.21472 | 2017 ft | 125 kts | 81° |
| 2026-04-27 19:20 | 51.26442 | -0.20082 | 2007 ft | 122 kts | 70° |
| 2026-04-27 19:20 | 51.27044 | -0.19317 | 2007 ft | 116 kts | 2° |
| 2026-04-27 19:21 | 51.27665 | -0.19996 | 2008 ft | 120 kts | 294° |
| 2026-04-27 19:21 | 51.27517 | -0.21318 | 2003 ft | 129 kts | 234° |
| 2026-04-27 19:21 | 51.26754 | -0.22002 | 2015 ft | 130 kts | 199° |
| 2026-04-27 19:21 | 51.25889 | -0.22452 | 2018 ft | 131 kts | 200° |
| 2026-04-27 19:22 | 51.25045 | -0.22936 | 2009 ft | 127 kts | 212° |
| 2026-04-27 19:22 | 51.24705 | -0.24097 | 2006 ft | 118 kts | 284° |
| 2026-04-27 19:22 | 51.25155 | -0.25082 | 2012 ft | 110 kts | 330° |
| 2026-04-27 19:22 | 51.25893 | -0.25309 | 2010 ft | 109 kts | 359° |
| 2026-04-27 19:23 | 51.26651 | -0.25366 | 2015 ft | 110 kts | 357° |
| 2026-04-27 19:23 | 51.27289 | -0.25946 | 2009 ft | 114 kts | 303° |
| 2026-04-27 19:23 | 51.27323 | -0.27189 | 2013 ft | 120 kts | 253° |
| 2026-04-27 19:23 | 51.27346 | -0.28426 | 2006 ft | 112 kts | 309° |
| 2026-04-27 19:24 | 51.28026 | -0.28718 | 2010 ft | 109 kts | 21° |
| 2026-04-27 19:24 | 51.28667 | -0.28067 | 2010 ft | 111 kts | 43° |
| 2026-04-27 19:24 | 51.28757 | -0.26865 | 2005 ft | 123 kts | 114° |
| 2026-04-27 19:24 | 51.28032 | -0.26173 | 2015 ft | 127 kts | 166° |
| 2026-04-27 19:25 | 51.27175 | -0.25837 | 2025 ft | 127 kts | 164° |
| 2026-04-27 19:25 | 51.26328 | -0.25952 | 2003 ft | 127 kts | 217° |
| 2026-04-27 19:25 | 51.25858 | -0.27070 | 2016 ft | 121 kts | 245° |
| 2026-04-27 19:25 | 51.25449 | -0.28256 | 2023 ft | 123 kts | 244° |
| 2026-04-27 19:26 | 51.24949 | -0.29367 | 2022 ft | 124 kts | 233° |
| 2026-04-27 19:26 | 51.24399 | -0.30434 | 2022 ft | 124 kts | 234° |
| 2026-04-27 19:26 | 51.23847 | -0.31537 | 2025 ft | 131 kts | 234° |
| 2026-04-27 19:26 | 51.23357 | -0.32769 | 2027 ft | 133 kts | 249° |
| 2026-04-27 19:27 | 51.23030 | -0.34149 | 2027 ft | 133 kts | 258° |
| 2026-04-27 19:27 | 51.22797 | -0.35586 | 2025 ft | 135 kts | 260° |
| 2026-04-27 19:27 | 51.22587 | -0.37054 | 2029 ft | 137 kts | 261° |
| 2026-04-27 19:27 | 51.22377 | -0.38561 | 2024 ft | 140 kts | 261° |
| 2026-04-27 19:28 | 51.22106 | -0.40056 | 2025 ft | 142 kts | 252° |
| 2026-04-27 19:28 | 51.21712 | -0.41499 | 2024 ft | 141 kts | 250° |
| 2026-04-27 19:28 | 51.21351 | -0.42927 | 2026 ft | 141 kts | 252° |
| 2026-04-27 19:28 | 51.20991 | -0.44400 | 2027 ft | 141 kts | 252° |
| 2026-04-27 19:29 | 51.20642 | -0.45837 | 2024 ft | 141 kts | 252° |
| 2026-04-27 19:29 | 51.20289 | -0.47291 | 2024 ft | 141 kts | 252° |
| 2026-04-27 19:29 | 51.19934 | -0.48747 | 2026 ft | 141 kts | 252° |
| 2026-04-27 19:29 | 51.19611 | -0.50225 | 2026 ft | 141 kts | 255° |
| 2026-04-27 19:30 | 51.19285 | -0.51698 | 2017 ft | 142 kts | 244° |
| 2026-04-27 19:30 | 51.18507 | -0.52674 | 2012 ft | 145 kts | 209° |
| 2026-04-27 19:30 | 51.17613 | -0.53425 | 2012 ft | 145 kts | 210° |
| 2026-04-27 19:30 | 51.16663 | -0.53966 | 2012 ft | 146 kts | 194° |
| 2026-04-27 19:31 | 51.15671 | -0.54327 | 2013 ft | 146 kts | 187° |
| 2026-04-27 19:31 | 51.14654 | -0.54276 | 2008 ft | 146 kts | 172° |
| 2026-04-27 19:31 | 51.13657 | -0.53984 | 2046 ft | 145 kts | 168° |
| 2026-04-27 19:31 | 51.12662 | -0.53648 | 1987 ft | 149 kts | 166° |
| 2026-04-27 19:32 | 51.11683 | -0.53249 | 2062 ft | 143 kts | 164° |
| 2026-04-27 19:32 | 51.10706 | -0.52835 | 2025 ft | 147 kts | 162° |
| 2026-04-27 19:32 | 51.09734 | -0.52373 | 2083 ft | 144 kts | 161° |
| 2026-04-27 19:32 | 51.08784 | -0.51860 | 2013 ft | 149 kts | 158° |
| 2026-04-27 19:33 | 51.07817 | -0.51313 | 2073 ft | 143 kts | 159° |
| 2026-04-27 19:33 | 51.07190 | -0.50856 | 1985 ft | 147 kts | 149° |
| 2026-04-27 19:33 | 51.06250 | -0.49567 | 2333 ft | 120 kts | 129° |
| 2026-04-27 19:33 | 51.05669 | -0.48590 | 2324 ft | 137 kts | 134° |
| 2026-04-27 19:34 | 51.04852 | -0.47735 | 2226 ft | 148 kts | 144° |
| 2026-04-27 19:34 | 51.03952 | -0.46937 | 2117 ft | 153 kts | 151° |
| 2026-04-27 19:34 | 51.02996 | -0.46178 | 2016 ft | 152 kts | 145° |
| 2026-04-27 19:34 | 51.02155 | -0.45232 | 1966 ft | 152 kts | 142° |
| 2026-04-27 19:35 | 51.01279 | -0.44302 | 1927 ft | 149 kts | 142° |
| 2026-04-27 19:35 | 51.00437 | -0.43319 | 1830 ft | 152 kts | 142° |
| 2026-04-27 19:35 | 50.99583 | -0.42369 | 1883 ft | 145 kts | 143° |
| 2026-04-27 19:35 | 50.98741 | -0.41469 | 1851 ft | 146 kts | 141° |
| 2026-04-27 19:36 | 50.97928 | -0.40521 | 1856 ft | 145 kts | 142° |
| 2026-04-27 19:36 | 50.97093 | -0.39590 | 1782 ft | 148 kts | 144° |
| 2026-04-27 19:36 | 50.96279 | -0.38721 | 1948 ft | 135 kts | 143° |
| 2026-04-27 19:36 | 50.95485 | -0.37895 | 1993 ft | 137 kts | 145° |
| 2026-04-27 19:37 | 50.94669 | -0.37129 | 2076 ft | 135 kts | 145° |
| 2026-04-27 19:37 | 50.93888 | -0.36284 | 2126 ft | 136 kts | 142° |
| 2026-04-27 19:37 | 50.93124 | -0.35410 | 2197 ft | 135 kts | 134° |
| 2026-04-27 19:37 | 50.92510 | -0.34244 | 2174 ft | 137 kts | 117° |
| 2026-04-27 19:38 | 50.91857 | -0.33098 | 2128 ft | 143 kts | 145° |
| 2026-04-27 19:38 | 50.90899 | -0.32507 | 1986 ft | 151 kts | 164° |
| 2026-04-27 19:38 | 50.89881 | -0.32175 | 1914 ft | 151 kts | 171° |
| 2026-04-27 19:38 | 50.88825 | -0.32078 | 1776 ft | 152 kts | 179° |
| 2026-04-27 19:39 | 50.87793 | -0.32157 | 1771 ft | 145 kts | 187° |
| 2026-04-27 19:39 | 50.86799 | -0.32365 | 1687 ft | 145 kts | 189° |
| 2026-04-27 19:39 | 50.85793 | -0.32598 | 1572 ft | 145 kts | 188° |
| 2026-04-27 19:39 | 50.84828 | -0.32821 | 1512 ft | 139 kts | 187° |
| 2026-04-27 19:40 | 50.83885 | -0.32908 | 1415 ft | 136 kts | 182° |
| 2026-04-27 19:40 | 50.83045 | -0.33343 | 1244 ft | 133 kts | 238° |
| 2026-04-27 19:40 | 50.83177 | -0.34580 | 1255 ft | 120 kts | 319° |
| 2026-04-27 19:40 | 50.83970 | -0.34686 | 1233 ft | 120 kts | 23° |
| 2026-04-27 19:41 | 50.84468 | -0.33667 | 1198 ft | 124 kts | 77° |
| 2026-04-27 19:41 | 50.84333 | -0.32299 | 1054 ft | 129 kts | 111° |
| 2026-04-27 19:41 | 50.83981 | -0.30990 | 897 ft | 130 kts | 116° |
| 2026-04-27 19:41 | 50.83633 | -0.29703 | 789 ft | 125 kts | 112° |
| 2026-04-27 19:42 | 50.83564 | -0.28429 | 840 ft | 110 kts | 75° |
| 2026-04-27 19:42 | 50.83985 | -0.27484 | 810 ft | 107 kts | 38° |
| 2026-04-27 19:42 | 50.84648 | -0.27038 | 782 ft | 100 kts | 13° |
| 2026-04-27 19:42 | 50.85301 | -0.26741 | 768 ft | 100 kts | 13° |
| 2026-04-27 19:43 | 50.85965 | -0.26756 | 743 ft | 92 kts | 331° |
| 2026-04-27 19:43 | 50.86283 | -0.27548 | 728 ft | 84 kts | 275° |
| 2026-04-27 19:43 | 50.86058 | -0.28322 | 727 ft | 83 kts | 209° |
| 2026-04-27 19:43 | 50.85439 | -0.28527 | 538 ft | 97 kts | 199° |
| 2026-04-27 19:44 | 50.84801 | -0.28961 | 335 ft | 102 kts | 201° |
| 2026-04-27 19:44 | 50.84210 | -0.29320 | 123 ft | 77 kts | 203° |
| 2026-04-27 19:44 | 50.83752 | -0.29606 | 13 ft | 63 kts | 202° |
| 2026-04-27 19:44 | 50.83462 | -0.29787 | 12 ft | 29 kts | 201° |
| 2026-04-27 19:45 | 50.83329 | -0.29871 | 12 ft | 12 kts | 203° |
| 2026-04-27 19:45 | 50.83267 | -0.29909 | 12 ft | 8 kts | 200° |
| 2026-04-27 19:45 | 50.83255 | -0.29833 | 12 ft | 11 kts | 64° |
| 2026-04-27 19:45 | 50.83307 | -0.29668 | 12 ft | 22 kts | 60° |
| 2026-04-27 19:46 | 50.83374 | -0.29452 | 12 ft | 23 kts | 63° |
| 2026-04-27 19:46 | 50.83449 | -0.29172 | 12 ft | 29 kts | 75° |
| 2026-04-27 19:46 | 50.83463 | -0.28970 | 12 ft | 13 kts | 71° |
| 2026-04-27 19:46 | 50.83476 | -0.28899 | 12 ft | 1 kts | 73° |
| 2026-04-27 19:47 | 50.83481 | -0.28880 | 12 ft | 4 kts | 73° |
| 2026-04-27 19:47 | 50.83486 | -0.28849 | 12 ft | 0 kts | 76° |
| 2026-04-27 19:47 | 50.83487 | -0.28843 | 12 ft | 0 kts | 77° |